createdAt,value
2023-05-05T00:01:02.172Z,100732.42
2023-05-05T00:03:30.085Z,100731.39
2023-05-05T00:05:58.223Z,100731.39
2023-05-05T00:08:26.018Z,100728.98
2023-05-05T00:10:53.934Z,100730.65
2023-05-05T00:13:21.874Z,100733.94
2023-05-05T00:15:50.700Z,100730.59
2023-05-05T00:18:18.974Z,100732.89
2023-05-05T00:20:49.715Z,100735.12
2023-05-05T00:23:17.922Z,100733.70
2023-05-05T00:25:45.722Z,100737.85
2023-05-05T00:28:16.547Z,100731.13
2023-05-05T00:30:45.072Z,100724.91
2023-05-05T00:33:13.120Z,100724.27
2023-05-05T00:35:40.820Z,100727.34
2023-05-05T00:38:08.559Z,100729.40
2023-05-05T00:40:37.097Z,100730.00
2023-05-05T00:43:05.748Z,100728.69
2023-05-05T00:45:33.491Z,100729.64
2023-05-05T00:48:01.757Z,100724.58
2023-05-05T00:50:30.582Z,100726.60
2023-05-05T00:53:02.261Z,100725.58
2023-05-05T00:55:30.581Z,100732.06
2023-05-05T00:57:59.631Z,100732.71
2023-05-05T01:00:28.130Z,100733.23
2023-05-05T01:02:56.415Z,100733.02
2023-05-05T01:05:27.855Z,100732.42
2023-05-05T01:08:06.183Z,100727.86
2023-05-05T01:10:54.163Z,100732.36
2023-05-05T01:13:37.469Z,100733.25
2023-05-05T01:16:15.464Z,100731.77
2023-05-05T01:18:52.306Z,100730.02
2023-05-05T01:21:33.408Z,100728.54
2023-05-05T01:24:01.174Z,100723.49
2023-05-05T01:26:35.086Z,100720.55
2023-05-05T01:29:02.875Z,100718.77
2023-05-05T01:31:39.612Z,100720.46
2023-05-05T01:34:08.548Z,100719.27
2023-05-05T01:36:38.044Z,100716.97
2023-05-05T01:39:08.352Z,100719.14
2023-05-05T01:42:02.633Z,100723.16
2023-05-05T01:44:31.288Z,100725.95
2023-05-05T01:46:59.727Z,100718.48
2023-05-05T01:49:28.183Z,100719.85
2023-05-05T01:51:56.558Z,100720.10
2023-05-05T01:54:25.069Z,100721.33
2023-05-05T01:56:54.452Z,100716.98
2023-05-05T01:59:23.490Z,100715.86
2023-05-05T02:01:52.073Z,100717.95
2023-05-05T02:04:22.890Z,100721.42
2023-05-05T02:06:53.098Z,100721.01
2023-05-05T02:09:25.009Z,100724.43
2023-05-05T02:11:54.502Z,100725.84
2023-05-05T02:14:23.158Z,100724.64
2023-05-05T02:16:51.625Z,100722.69
2023-05-05T02:19:21.387Z,100719.92
2023-05-05T02:21:49.821Z,100717.27
2023-05-05T02:24:17.501Z,100712.48
2023-05-05T02:26:46.193Z,100705.95
2023-05-05T02:29:16.529Z,100702.98
2023-05-05T02:31:48.029Z,100698.98
2023-05-05T02:34:21.400Z,100697.58
2023-05-05T02:36:51.624Z,100695.71
2023-05-05T02:39:35.956Z,100697.63
2023-05-05T02:42:08.237Z,100699.46
2023-05-05T02:44:37.008Z,100703.07
2023-05-05T02:47:05.042Z,100702.56
2023-05-05T02:49:33.159Z,100701.15
2023-05-05T02:52:01.233Z,100700.51
2023-05-05T02:54:33.287Z,100699.89
2023-05-05T02:57:02.240Z,100697.31
2023-05-05T02:59:36.577Z,100701.94
2023-05-05T03:02:13.933Z,100704.51
2023-05-05T03:04:56.476Z,100709.70
2023-05-05T03:07:30.684Z,100712.34
2023-05-05T03:10:05.123Z,100715.43
2023-05-05T03:12:37.461Z,100715.05
2023-05-05T03:15:22.321Z,100713.55
2023-05-05T03:17:53.115Z,100714.05
2023-05-05T03:20:21.798Z,100716.29
2023-05-05T03:22:50.790Z,100719.48
2023-05-05T03:25:18.640Z,100722.20
2023-05-05T03:27:46.632Z,100724.70
2023-05-05T03:30:15.981Z,100725.58
2023-05-05T03:32:48.740Z,100722.27
2023-05-05T03:35:16.895Z,100725.17
2023-05-05T03:37:45.050Z,100721.27
2023-05-05T03:40:13.827Z,100720.70
2023-05-05T03:42:42.030Z,100720.71
2023-05-05T03:45:10.265Z,100722.17
2023-05-05T03:47:38.377Z,100722.80
2023-05-05T03:50:07.558Z,100724.29
2023-05-05T03:52:36.918Z,100730.33
2023-05-05T03:55:04.873Z,100729.33
2023-05-05T03:57:34.298Z,100727.02
2023-05-05T04:00:02.350Z,100729.48
2023-05-05T04:02:30.954Z,100727.01
2023-05-05T04:04:59.015Z,100725.55
2023-05-05T04:07:27.192Z,100726.88
2023-05-05T04:09:56.124Z,100728.17
2023-05-05T04:12:23.869Z,100725.34
2023-05-05T04:14:51.808Z,100727.83
2023-05-05T04:17:20.032Z,100728.98
2023-05-05T04:19:47.790Z,100728.84
2023-05-05T04:22:16.107Z,100735.98
2023-05-05T04:24:44.085Z,100738.52
2023-05-05T04:27:12.442Z,100738.32
2023-05-05T04:29:40.910Z,100740.54
2023-05-05T04:32:08.717Z,100742.36
2023-05-05T04:34:36.988Z,100745.47
2023-05-05T04:37:05.120Z,100744.67
2023-05-05T04:39:33.453Z,100747.91
2023-05-05T04:42:02.212Z,100752.67
2023-05-05T04:44:30.014Z,100754.43
2023-05-05T04:46:58.112Z,100752.24
2023-05-05T04:49:26.251Z,100755.73
2023-05-05T04:51:54.238Z,100754.77
2023-05-05T04:54:22.746Z,100757.62
2023-05-05T04:56:50.803Z,100760.99
2023-05-05T04:59:18.635Z,100759.64
2023-05-05T05:01:47.239Z,100760.59
2023-05-05T05:04:18.378Z,100761.89
2023-05-05T05:06:46.489Z,100765.89
2023-05-05T05:09:14.518Z,100770.38
2023-05-05T05:11:42.239Z,100769.26
2023-05-05T05:14:10.191Z,100769.09
2023-05-05T05:16:38.248Z,100771.13
2023-05-05T05:19:06.973Z,100772.56
2023-05-05T05:21:34.786Z,100773.40
2023-05-05T05:24:02.629Z,100775.73
2023-05-05T05:26:30.388Z,100778.38
2023-05-05T05:28:58.292Z,100782.48
2023-05-05T05:31:26.151Z,100784.64
2023-05-05T05:33:54.027Z,100784.72
2023-05-05T05:36:21.931Z,100784.17
2023-05-05T05:38:49.909Z,100786.63
2023-05-05T05:41:18.103Z,100786.99
2023-05-05T05:43:46.008Z,100788.33
2023-05-05T05:46:13.860Z,100788.86
2023-05-05T05:48:42.292Z,100795.48
2023-05-05T05:51:10.358Z,100799.89
2023-05-05T05:53:38.626Z,100803.27
2023-05-05T05:56:06.754Z,100801.04
2023-05-05T05:58:34.886Z,100800.48
2023-05-05T06:01:04.964Z,100803.02
2023-05-05T06:03:33.025Z,100804.13
2023-05-05T06:06:00.977Z,100805.21
2023-05-05T06:08:28.901Z,100806.96
2023-05-05T06:10:57.931Z,100805.49
2023-05-05T06:13:26.060Z,100803.63
2023-05-05T06:15:53.772Z,100804.30
2023-05-05T06:18:21.729Z,100801.06
2023-05-05T06:20:50.753Z,100799.23
2023-05-05T06:23:18.687Z,100797.10
2023-05-05T06:25:51.021Z,100798.42
2023-05-05T06:28:18.923Z,100798.17
2023-05-05T06:30:46.677Z,100799.35
2023-05-05T06:33:14.634Z,100795.52
2023-05-05T06:35:42.779Z,100796.83
2023-05-05T06:38:10.610Z,100797.15
2023-05-05T06:40:38.343Z,100797.34
2023-05-05T06:43:06.135Z,100797.92
2023-05-05T06:45:37.202Z,100797.23
2023-05-05T06:48:04.929Z,100787.58
2023-05-05T06:50:33.044Z,100785.23
2023-05-05T06:53:01.300Z,100791.73
2023-05-05T06:55:29.049Z,100789.63
2023-05-05T06:57:56.793Z,100791.22
2023-05-05T07:00:24.631Z,100791.73
2023-05-05T07:02:52.443Z,100795.84
2023-05-05T07:05:20.446Z,100794.40
2023-05-05T07:07:52.854Z,100799.98
2023-05-05T07:10:21.437Z,100802.16
2023-05-05T07:12:49.421Z,100799.10
2023-05-05T07:15:27.655Z,100799.90
2023-05-05T07:17:57.787Z,100794.61
2023-05-05T07:20:25.986Z,100796.34
2023-05-05T07:22:53.832Z,100796.02
2023-05-05T07:25:21.832Z,100798.06
2023-05-05T07:27:49.848Z,100796.11
2023-05-05T07:30:19.098Z,100796.38
2023-05-05T07:32:47.666Z,100799.57
2023-05-05T07:35:15.550Z,100796.02
2023-05-05T07:37:44.320Z,100795.33
2023-05-05T07:40:12.380Z,100795.23
2023-05-05T07:42:40.249Z,100796.52
2023-05-05T07:45:08.421Z,100797.73
2023-05-05T07:47:36.301Z,100796.69
2023-05-05T07:50:05.053Z,100794.88
2023-05-05T07:52:45.313Z,100793.06
2023-05-05T07:55:16.098Z,100793.17
2023-05-05T07:57:43.760Z,100793.27
2023-05-05T08:00:13.238Z,100789.73
2023-05-05T08:02:41.730Z,100788.67
2023-05-05T08:05:09.906Z,100787.17
2023-05-05T08:07:41.298Z,100783.67
2023-05-05T08:10:11.055Z,100787.97
2023-05-05T08:12:39.266Z,100785.02
2023-05-05T08:15:07.820Z,100782.92
2023-05-05T08:17:46.084Z,100786.33
2023-05-05T08:20:14.766Z,100787.80
2023-05-05T08:22:42.997Z,100787.66
2023-05-05T08:25:11.660Z,100785.77
2023-05-05T08:27:40.095Z,100785.69
2023-05-05T08:30:08.525Z,100785.72
2023-05-05T08:32:36.694Z,100783.31
2023-05-05T08:35:05.302Z,100782.61
2023-05-05T08:37:33.177Z,100780.77
2023-05-05T08:40:01.165Z,100783.04
2023-05-05T08:42:37.280Z,100783.00
2023-05-05T08:45:06.899Z,100780.21
2023-05-05T08:47:35.980Z,100777.70
2023-05-05T08:50:05.755Z,100778.80
2023-05-05T08:52:39.576Z,100775.32
2023-05-05T08:55:13.337Z,100773.87
2023-05-05T08:57:46.377Z,100769.83
2023-05-05T09:00:14.624Z,100772.52
2023-05-05T09:02:43.255Z,100767.65
2023-05-05T09:05:11.497Z,100764.94
2023-05-05T09:07:41.377Z,100765.10
2023-05-05T09:10:10.355Z,100763.39
2023-05-05T09:12:41.652Z,100762.61
2023-05-05T09:15:10.516Z,100760.80
2023-05-05T09:17:39.250Z,100758.05
2023-05-05T09:20:08.315Z,100759.83
2023-05-05T09:22:36.955Z,100760.73
2023-05-05T09:25:08.997Z,100760.59
2023-05-05T09:27:37.709Z,100758.21
2023-05-05T09:30:06.073Z,100753.54
2023-05-05T09:32:47.448Z,100751.30
2023-05-05T09:35:16.111Z,100753.98
2023-05-05T09:37:43.947Z,100754.11
2023-05-05T09:40:13.447Z,100751.58
2023-05-05T09:42:41.166Z,100745.71
2023-05-05T09:45:18.486Z,100744.56
2023-05-05T09:47:47.235Z,100745.36
2023-05-05T09:50:17.066Z,100738.25
2023-05-05T09:52:54.875Z,100738.60
2023-05-05T09:55:23.268Z,100735.83
2023-05-05T09:57:51.271Z,100734.43
2023-05-05T10:00:19.433Z,100733.40
2023-05-05T10:02:47.212Z,100732.29
2023-05-05T10:05:16.515Z,100733.16
2023-05-05T10:07:45.233Z,100732.88
2023-05-05T10:10:16.577Z,100733.31
2023-05-05T10:12:46.710Z,100731.83
2023-05-05T10:15:15.641Z,100728.14
2023-05-05T10:18:05.114Z,100724.41
2023-05-05T10:20:35.569Z,100723.81
2023-05-05T10:23:05.975Z,100720.08
2023-05-05T10:25:39.156Z,100715.23
2023-05-05T10:28:09.871Z,100711.25
2023-05-05T10:30:42.980Z,100708.48
2023-05-05T10:33:30.293Z,100705.65
2023-05-05T10:36:02.312Z,100706.55
2023-05-05T10:38:33.520Z,100706.80
2023-05-05T10:41:02.109Z,100701.36
2023-05-05T10:43:30.901Z,100696.98
2023-05-05T10:45:59.329Z,100695.40
2023-05-05T10:48:50.718Z,100691.55
2023-05-05T10:51:39.266Z,100691.19
2023-05-05T10:54:27.916Z,100687.13
2023-05-05T10:56:56.805Z,100683.70
2023-05-05T10:59:39.686Z,100683.85
2023-05-05T11:02:21.382Z,100682.99
2023-05-05T11:05:08.336Z,100681.84
2023-05-05T11:07:37.216Z,100673.21
2023-05-05T11:10:06.043Z,100672.84
2023-05-05T11:12:53.943Z,100669.45
2023-05-05T11:15:27.898Z,100665.77
2023-05-05T11:17:56.533Z,100668.98
2023-05-05T11:20:40.046Z,100667.66
2023-05-05T11:23:08.122Z,100661.98
2023-05-05T11:25:40.566Z,100659.36
2023-05-05T11:28:12.543Z,100659.45
2023-05-05T11:30:59.181Z,100657.21
2023-05-05T11:33:30.575Z,100657.14
2023-05-05T11:36:03.441Z,100656.13
2023-05-05T11:38:38.836Z,100646.23
2023-05-05T11:41:13.903Z,100645.16
2023-05-05T11:43:42.497Z,100639.96
2023-05-05T11:46:11.868Z,100634.77
2023-05-05T11:48:49.221Z,100637.58
2023-05-05T11:51:18.582Z,100632.38
2023-05-05T11:53:47.488Z,100634.52
2023-05-05T11:56:25.061Z,100632.73
2023-05-05T11:59:06.825Z,100626.26
2023-05-05T12:01:35.351Z,100622.40
2023-05-05T12:04:03.459Z,100619.79
2023-05-05T12:06:34.683Z,100615.61
2023-05-05T12:09:02.868Z,100611.61
2023-05-05T12:11:30.624Z,100607.03
2023-05-05T12:14:11.693Z,100607.73
2023-05-05T12:16:39.626Z,100603.02
2023-05-05T12:19:08.531Z,100599.25
2023-05-05T12:21:36.849Z,100591.75
2023-05-05T12:24:04.806Z,100592.70
2023-05-05T12:26:32.517Z,100591.17
2023-05-05T12:29:01.123Z,100591.05
2023-05-05T12:31:35.945Z,100590.92
2023-05-05T12:34:04.850Z,100590.15
2023-05-05T12:36:33.625Z,100590.41
2023-05-05T12:39:01.659Z,100587.48
2023-05-05T12:41:29.477Z,100583.73
2023-05-05T12:43:58.309Z,100578.06
2023-05-05T12:46:26.590Z,100578.05
2023-05-05T12:49:05.693Z,100583.15
2023-05-05T12:51:34.105Z,100580.36
2023-05-05T12:54:05.568Z,100572.92
2023-05-05T12:56:35.387Z,100572.52
2023-05-05T12:59:07.494Z,100571.70
2023-05-05T13:01:36.297Z,100574.96
2023-05-05T13:04:04.836Z,100572.02
2023-05-05T13:06:32.738Z,100567.08
2023-05-05T13:09:00.941Z,100564.90
2023-05-05T13:11:28.715Z,100560.61
2023-05-05T13:13:56.656Z,100552.50
2023-05-05T13:16:24.551Z,100548.95
2023-05-05T13:18:53.555Z,100547.38
2023-05-05T13:21:21.351Z,100545.70
2023-05-05T13:23:49.166Z,100540.67
2023-05-05T13:26:17.159Z,100539.09
2023-05-05T13:28:44.943Z,100533.90
2023-05-05T13:31:12.748Z,100531.59
2023-05-05T13:33:40.828Z,100527.55
2023-05-05T13:36:08.658Z,100526.52
2023-05-05T13:38:36.781Z,100521.46
2023-05-05T13:41:04.464Z,100522.15
2023-05-05T13:43:32.125Z,100515.56
2023-05-05T13:46:12.252Z,100512.80
2023-05-05T13:48:47.251Z,100510.48
2023-05-05T13:51:16.523Z,100508.98
2023-05-05T13:53:45.101Z,100504.62
2023-05-05T13:56:13.373Z,100505.38
2023-05-05T13:58:42.722Z,100506.77
2023-05-05T14:01:11.039Z,100505.73
2023-05-05T14:03:39.870Z,100505.98
2023-05-05T14:06:09.159Z,100502.63
2023-05-05T14:08:37.014Z,100502.14
2023-05-05T14:11:04.754Z,100500.60
2023-05-05T14:13:32.553Z,100498.45
2023-05-05T14:16:00.356Z,100495.37
2023-05-05T14:18:28.358Z,100491.88
2023-05-05T14:20:56.163Z,100487.17
2023-05-05T14:23:23.904Z,100484.55
2023-05-05T14:25:51.650Z,100481.67
2023-05-05T14:28:19.495Z,100479.79
2023-05-05T14:30:47.162Z,100479.93
2023-05-05T14:33:14.952Z,100479.09
2023-05-05T14:35:42.918Z,100478.66
2023-05-05T14:38:10.745Z,100476.05
2023-05-05T14:40:38.423Z,100471.37
2023-05-05T14:43:06.339Z,100469.55
2023-05-05T14:45:34.149Z,100466.01
2023-05-05T14:48:02.737Z,100463.93
2023-05-05T14:50:30.739Z,100458.80
2023-05-05T14:52:58.557Z,100459.98
2023-05-05T14:55:26.513Z,100463.41
2023-05-05T14:57:54.277Z,100459.25
2023-05-05T15:00:22.027Z,100459.21
2023-05-05T15:02:49.721Z,100458.66
2023-05-05T15:05:17.582Z,100456.16
2023-05-05T15:07:45.564Z,100456.34
2023-05-05T15:10:13.406Z,100454.02
2023-05-05T15:12:42.448Z,100450.09
2023-05-05T15:15:10.656Z,100453.39
2023-05-05T15:17:38.830Z,100455.21
2023-05-05T15:20:07.068Z,100455.88
2023-05-05T15:22:36.403Z,100456.55
2023-05-05T15:25:04.288Z,100456.89
2023-05-05T15:27:32.225Z,100453.00
2023-05-05T15:30:00.224Z,100449.70
2023-05-05T15:32:28.250Z,100455.05
2023-05-05T15:34:56.324Z,100456.25
2023-05-05T15:37:24.702Z,100451.17
2023-05-05T15:39:52.459Z,100454.09
2023-05-05T15:42:20.093Z,100451.96
2023-05-05T15:44:47.824Z,100449.45
2023-05-05T15:47:15.531Z,100448.28
2023-05-05T15:49:43.458Z,100447.55
2023-05-05T15:52:11.906Z,100447.76
2023-05-05T15:54:39.720Z,100446.40
2023-05-05T15:57:07.361Z,100445.56
2023-05-05T15:59:35.460Z,100442.10
2023-05-05T16:02:03.351Z,100441.61
2023-05-05T16:04:31.280Z,100439.45
2023-05-05T16:06:59.212Z,100440.19
2023-05-05T16:09:27.112Z,100442.81
2023-05-05T16:11:55.291Z,100445.01
2023-05-05T16:14:23.120Z,100445.25
2023-05-05T16:16:50.892Z,100443.83
2023-05-05T16:19:18.904Z,100442.02
2023-05-05T16:21:46.687Z,100441.63
2023-05-05T16:24:17.137Z,100441.88
2023-05-05T16:26:45.579Z,100444.09
2023-05-05T16:29:13.200Z,100443.08
2023-05-05T16:31:41.084Z,100445.48
2023-05-05T16:34:09.063Z,100442.44
2023-05-05T16:36:36.831Z,100442.45
2023-05-05T16:39:04.528Z,100442.69
2023-05-05T16:41:32.571Z,100439.38
2023-05-05T16:44:00.265Z,100440.73
2023-05-05T16:46:28.218Z,100443.66
2023-05-05T16:48:56.515Z,100441.41
2023-05-05T16:51:24.566Z,100440.79
2023-05-05T16:53:52.230Z,100443.69
2023-05-05T16:56:19.945Z,100444.20
2023-05-05T16:58:47.668Z,100443.65
2023-05-05T17:01:15.437Z,100443.70
2023-05-05T17:03:43.420Z,100444.21
2023-05-05T17:06:13.000Z,100447.86
2023-05-05T17:08:40.734Z,100448.23
2023-05-05T17:11:10.991Z,100447.19
2023-05-05T17:13:40.000Z,100449.55
2023-05-05T17:16:07.805Z,100451.38
2023-05-05T17:18:37.083Z,100451.41
2023-05-05T17:21:05.013Z,100451.89
2023-05-05T17:23:32.706Z,100454.52
2023-05-05T17:26:00.783Z,100457.46
2023-05-05T17:28:28.519Z,100454.11
2023-05-05T17:30:59.663Z,100453.23
2023-05-05T17:33:27.335Z,100452.52
2023-05-05T17:35:55.000Z,100452.70
2023-05-05T17:38:23.105Z,100455.25
2023-05-05T17:40:50.822Z,100456.50
2023-05-05T17:43:18.438Z,100456.33
2023-05-05T17:45:46.812Z,100457.73
2023-05-05T17:48:14.677Z,100458.58
2023-05-05T17:50:43.455Z,100457.74
2023-05-05T17:53:11.873Z,100460.16
2023-05-05T17:55:39.572Z,100461.08
2023-05-05T17:58:07.444Z,100459.64
2023-05-05T18:00:35.971Z,100461.09
2023-05-05T18:03:04.349Z,100463.50
2023-05-05T18:05:32.139Z,100463.55
2023-05-05T18:08:00.028Z,100466.81
2023-05-05T18:10:27.774Z,100468.01
2023-05-05T18:12:55.596Z,100470.98
2023-05-05T18:15:23.308Z,100474.92
2023-05-05T18:17:51.153Z,100479.38
2023-05-05T18:20:19.274Z,100481.73
2023-05-05T18:22:47.048Z,100481.98
2023-05-05T18:25:15.078Z,100483.77
2023-05-05T18:27:43.927Z,100484.81
2023-05-05T18:30:11.986Z,100487.02
2023-05-05T18:32:39.889Z,100489.08
2023-05-05T18:35:08.933Z,100487.30
2023-05-05T18:37:36.840Z,100488.38
2023-05-05T18:40:04.855Z,100489.57
2023-05-05T18:42:32.804Z,100486.89
2023-05-05T18:45:00.703Z,100486.83
2023-05-05T18:47:28.730Z,100487.90
2023-05-05T18:49:56.893Z,100489.29
2023-05-05T18:52:25.356Z,100494.44
2023-05-05T18:54:53.019Z,100494.68
2023-05-05T18:57:20.697Z,100496.96
2023-05-05T18:59:48.427Z,100499.99
2023-05-05T19:02:16.940Z,100502.30
2023-05-05T19:04:44.694Z,100499.79
2023-05-05T19:07:18.318Z,100503.69
2023-05-05T19:09:49.060Z,100502.19
2023-05-05T19:12:18.266Z,100500.80
2023-05-05T19:14:46.115Z,100502.50
2023-05-05T19:17:13.911Z,100505.71
2023-05-05T19:19:41.909Z,100504.64
2023-05-05T19:22:10.023Z,100502.21
2023-05-05T19:24:37.812Z,100498.36
2023-05-05T19:27:05.545Z,100496.46
2023-05-05T19:29:33.348Z,100498.45
2023-05-05T19:32:01.189Z,100494.34
2023-05-05T19:34:29.080Z,100490.20
2023-05-05T19:36:56.943Z,100494.89
2023-05-05T19:39:24.851Z,100494.30
2023-05-05T19:41:53.256Z,100493.30
2023-05-05T19:44:22.608Z,100493.30
2023-05-05T19:46:50.910Z,100492.95
2023-05-05T19:49:18.767Z,100493.59
2023-05-05T19:51:49.873Z,100494.30
2023-05-05T19:54:18.238Z,100493.66
2023-05-05T19:56:46.093Z,100490.88
2023-05-05T19:59:13.728Z,100490.65
2023-05-05T20:01:41.762Z,100490.36
2023-05-05T20:04:09.827Z,100488.64
2023-05-05T20:06:37.577Z,100486.52
2023-05-05T20:09:05.584Z,100486.84
2023-05-05T20:11:33.475Z,100487.59
2023-05-05T20:14:01.299Z,100485.97
2023-05-05T20:16:29.180Z,100485.85
2023-05-05T20:18:57.137Z,100485.52
2023-05-05T20:21:24.820Z,100484.47
2023-05-05T20:23:54.678Z,100486.05
2023-05-05T20:26:22.440Z,100482.55
2023-05-05T20:28:50.524Z,100483.01
2023-05-05T20:31:18.378Z,100482.88
2023-05-05T20:33:46.457Z,100482.77
2023-05-05T20:36:14.235Z,100480.20
2023-05-05T20:38:43.152Z,100480.20
2023-05-05T20:41:11.531Z,100482.11
2023-05-05T20:43:39.403Z,100479.66
2023-05-05T20:46:10.871Z,100480.08
2023-05-05T20:48:42.483Z,100479.77
2023-05-05T20:51:11.178Z,100480.88
2023-05-05T20:53:38.932Z,100479.48
2023-05-05T20:56:08.937Z,100480.00
2023-05-05T20:58:37.229Z,100478.54
2023-05-05T21:01:05.022Z,100473.71
2023-05-05T21:03:32.801Z,100473.84
2023-05-05T21:06:01.728Z,100474.53
2023-05-05T21:08:29.669Z,100474.84
2023-05-05T21:10:57.341Z,100474.31
2023-05-05T21:13:25.182Z,100475.91
2023-05-05T21:15:53.132Z,100478.23
2023-05-05T21:18:21.043Z,100480.00
2023-05-05T21:20:48.945Z,100484.51
2023-05-05T21:23:16.923Z,100481.46
2023-05-05T21:25:44.643Z,100480.49
2023-05-05T21:28:12.430Z,100482.02
2023-05-05T21:30:40.448Z,100482.67
2023-05-05T21:33:08.266Z,100480.39
2023-05-05T21:35:36.178Z,100483.77
2023-05-05T21:38:03.910Z,100483.48
2023-05-05T21:40:31.653Z,100483.41
2023-05-05T21:42:59.552Z,100484.48
2023-05-05T21:45:27.292Z,100483.48
2023-05-05T21:47:55.197Z,100483.91
2023-05-05T21:50:22.970Z,100482.90
2023-05-05T21:52:50.873Z,100481.34
2023-05-05T21:55:18.551Z,100483.10
2023-05-05T21:57:46.385Z,100483.69
2023-05-05T22:00:16.939Z,100483.95
2023-05-05T22:02:45.498Z,100485.55
2023-05-05T22:05:13.429Z,100480.54
2023-05-05T22:07:41.342Z,100481.12
2023-05-05T22:10:09.339Z,100481.66
2023-05-05T22:12:37.124Z,100479.72
2023-05-05T22:15:05.254Z,100477.64
2023-05-05T22:17:33.008Z,100477.04
2023-05-05T22:20:00.670Z,100473.63
2023-05-05T22:22:28.406Z,100473.86
2023-05-05T22:24:56.103Z,100472.98
2023-05-05T22:27:23.925Z,100467.71
2023-05-05T22:29:51.616Z,100466.69
2023-05-05T22:32:20.462Z,100460.91
2023-05-05T22:34:48.406Z,100462.00
2023-05-05T22:37:16.197Z,100459.39
2023-05-05T22:39:43.949Z,100455.36
2023-05-05T22:42:11.753Z,100453.07
2023-05-05T22:44:39.370Z,100452.41
2023-05-05T22:47:07.104Z,100453.80
2023-05-05T22:49:35.323Z,100450.10
2023-05-05T22:52:03.521Z,100449.39
2023-05-05T22:54:31.140Z,100449.33
2023-05-05T22:56:59.216Z,100450.13
2023-05-05T22:59:27.077Z,100449.14
2023-05-05T23:01:54.701Z,100447.29
2023-05-05T23:04:22.449Z,100448.92
2023-05-05T23:06:50.489Z,100450.55
2023-05-05T23:09:18.164Z,100446.40
2023-05-05T23:11:45.877Z,100442.14
2023-05-05T23:14:13.867Z,100441.92
2023-05-05T23:16:41.531Z,100439.89
2023-05-05T23:19:09.225Z,100439.92
2023-05-05T23:21:49.229Z,100435.73
2023-05-05T23:24:20.143Z,100431.83
2023-05-05T23:26:48.081Z,100431.43
2023-05-05T23:29:15.770Z,100429.36
2023-05-05T23:31:43.977Z,100426.55
2023-05-05T23:34:11.981Z,100424.44
2023-05-05T23:36:39.680Z,100425.20
2023-05-05T23:39:07.999Z,100421.59
2023-05-05T23:41:36.017Z,100422.22
2023-05-05T23:44:03.816Z,100417.95
2023-05-05T23:46:31.583Z,100421.17
2023-05-05T23:48:59.306Z,100419.72
2023-05-05T23:51:31.011Z,100424.59
2023-05-05T23:53:58.846Z,100422.54
2023-05-05T23:56:26.872Z,100421.85
2023-05-05T23:58:54.598Z,100421.30
